sensor_id;sensor_type;location;lat;lon;timestamp;pressure;altitude;pressure_sealevel;temperature;humidity
7168;BME280;3625;51.762;14.320;2024-01-06T00:01:33;99604.81;;;1.67;100.00
7168;BME280;3625;51.762;14.320;2024-01-06T00:04:01;99605.69;;;1.71;100.00
7168;BME280;3625;51.762;14.320;2024-01-06T00:06:32;99602.22;;;1.72;100.00
7168;BME280;3625;51.762;14.320;2024-01-06T00:09:00;99610.88;;;1.77;100.00
7168;BME280;3625;51.762;14.320;2024-01-06T00:11:29;99607.44;;;1.81;100.00
7168;BME280;3625;51.762;14.320;2024-01-06T00:13:58;99614.38;;;1.80;100.00
7168;BME280;3625;51.762;14.320;2024-01-06T00:16:26;99587.44;;;1.68;100.00
7168;BME280;3625;51.762;14.320;2024-01-06T00:18:56;99615.25;;;1.88;100.00
7168;BME280;3625;51.762;14.320;2024-01-06T00:21:24;99616.09;;;1.89;100.00
7168;BME280;3625;51.762;14.320;2024-01-06T00:23:55;99616.09;;;1.89;100.00
7168;BME280;3625;51.762;14.320;2024-01-06T00:26:24;99593.50;;;1.79;100.00
7168;BME280;3625;51.762;14.320;2024-01-06T00:28:52;99613.47;;;2.00;100.00
7168;BME280;3625;51.762;14.320;2024-01-06T00:31:21;99625.63;;;2.02;100.00
7168;BME280;3625;51.762;14.320;2024-01-06T00:33:50;99621.31;;;2.07;100.00
7168;BME280;3625;51.762;14.320;2024-01-06T00:36:19;99629.94;;;2.17;100.00
7168;BME280;3625;51.762;14.320;2024-01-06T00:38:47;99577.84;;;1.91;100.00
7168;BME280;3625;51.762;14.320;2024-01-06T00:41:17;99627.34;;;2.18;100.00
7168;BME280;3625;51.762;14.320;2024-01-06T00:43:46;99635.19;;;2.18;100.00
7168;BME280;3625;51.762;14.320;2024-01-06T00:46:15;99632.56;;;2.20;100.00
7168;BME280;3625;51.762;14.320;2024-01-06T00:48:44;99622.13;;;2.17;100.00
7168;BME280;3625;51.762;14.320;2024-01-06T00:51:13;99636.03;;;2.26;100.00
7168;BME280;3625;51.762;14.320;2024-01-06T00:53:41;99639.50;;;2.32;100.00
7168;BME280;3625;51.762;14.320;2024-01-06T00:56:10;99635.16;;;2.26;100.00
7168;BME280;3625;51.762;14.320;2024-01-06T00:58:40;99634.28;;;2.27;100.00
7168;BME280;3625;51.762;14.320;2024-01-06T01:01:09;99634.28;;;2.32;100.00
7168;BME280;3625;51.762;14.320;2024-01-06T01:03:37;99629.94;;;2.26;100.00
7168;BME280;3625;51.762;14.320;2024-01-06T01:06:06;99638.66;;;2.31;100.00
7168;BME280;3625;51.762;14.320;2024-01-06T01:08:35;99646.44;;;2.39;100.00
7168;BME280;3625;51.762;14.320;2024-01-06T01:11:04;99647.31;;;2.35;100.00
7168;BME280;3625;51.762;14.320;2024-01-06T01:13:33;99649.94;;;2.30;100.00
7168;BME280;3625;51.762;14.320;2024-01-06T01:16:04;99656.88;;;2.37;100.00
7168;BME280;3625;51.762;14.320;2024-01-06T01:18:32;99650.78;;;2.34;100.00
7168;BME280;3625;51.762;14.320;2024-01-06T01:21:02;99645.59;;;2.32;100.00
7168;BME280;3625;51.762;14.320;2024-01-06T01:23:30;99640.38;;;2.40;100.00
7168;BME280;3625;51.762;14.320;2024-01-06T01:25:59;99669.03;;;2.59;100.00
7168;BME280;3625;51.762;14.320;2024-01-06T01:28:28;99670.75;;;2.63;100.00
7168;BME280;3625;51.762;14.320;2024-01-06T01:30:56;99672.50;;;2.55;100.00
7168;BME280;3625;51.762;14.320;2024-01-06T01:33:27;99675.13;;;2.51;100.00
7168;BME280;3625;51.762;14.320;2024-01-06T01:35:55;99673.38;;;2.59;100.00
7168;BME280;3625;51.762;14.320;2024-01-06T01:38:31;99643.78;;;2.52;100.00
7168;BME280;3625;51.762;14.320;2024-01-06T01:40:59;99668.13;;;2.65;100.00
7168;BME280;3625;51.762;14.320;2024-01-06T01:43:28;99662.06;;;2.58;100.00
7168;BME280;3625;51.762;14.320;2024-01-06T01:46:00;99662.06;;;2.52;100.00
7168;BME280;3625;51.762;14.320;2024-01-06T01:48:30;99616.06;;;2.22;100.00
7168;BME280;3625;51.762;14.320;2024-01-06T01:51:02;99622.13;;;2.31;100.00
7168;BME280;3625;51.762;14.320;2024-01-06T01:53:32;99657.69;;;2.60;100.00
7168;BME280;3625;51.762;14.320;2024-01-06T01:56:01;99668.97;;;2.75;100.00
7168;BME280;3625;51.762;14.320;2024-01-06T01:58:31;99670.75;;;2.60;100.00
7168;BME280;3625;51.762;14.320;2024-01-06T02:01:00;99614.34;;;2.15;100.00
7168;BME280;3625;51.762;14.320;2024-01-06T02:03:31;99670.75;;;2.51;100.00
7168;BME280;3625;51.762;14.320;2024-01-06T02:06:00;99665.56;;;2.48;100.00
7168;BME280;3625;51.762;14.320;2024-01-06T02:08:29;99661.22;;;2.49;100.00
7168;BME280;3625;51.762;14.320;2024-01-06T02:10:58;99663.81;;;2.53;100.00
7168;BME280;3625;51.762;14.320;2024-01-06T02:13:33;99670.78;;;2.50;100.00
7168;BME280;3625;51.762;14.320;2024-01-06T02:16:04;99662.97;;;2.38;100.00
7168;BME280;3625;51.762;14.320;2024-01-06T02:18:34;99676.00;;;2.42;100.00
7168;BME280;3625;51.762;14.320;2024-01-06T02:21:03;99662.97;;;2.50;100.00
7168;BME280;3625;51.762;14.320;2024-01-06T02:23:36;99663.84;;;2.47;100.00
7168;BME280;3625;51.762;14.320;2024-01-06T02:26:05;99646.44;;;2.37;100.00
7168;BME280;3625;51.762;14.320;2024-01-06T02:28:34;99595.19;;;2.10;100.00
7168;BME280;3625;51.762;14.320;2024-01-06T02:31:03;99668.16;;;2.51;100.00
7168;BME280;3625;51.762;14.320;2024-01-06T02:33:32;99679.47;;;2.53;100.00
7168;BME280;3625;51.762;14.320;2024-01-06T02:36:01;99672.50;;;2.55;100.00
7168;BME280;3625;51.762;14.320;2024-01-06T02:38:30;99676.00;;;2.45;100.00
7168;BME280;3625;51.762;14.320;2024-01-06T02:41:00;99623.91;;;2.13;100.00
7168;BME280;3625;51.762;14.320;2024-01-06T02:43:28;99676.88;;;2.44;100.00
7168;BME280;3625;51.762;14.320;2024-01-06T02:45:57;99603.88;;;2.09;100.00
7168;BME280;3625;51.762;14.320;2024-01-06T02:48:26;99656.03;;;2.32;100.00
7168;BME280;3625;51.762;14.320;2024-01-06T02:50:58;99692.56;;;2.40;100.00
7168;BME280;3625;51.762;14.320;2024-01-06T02:53:26;99665.59;;;2.16;100.00
7168;BME280;3625;51.762;14.320;2024-01-06T02:55:55;99672.56;;;2.26;100.00
7168;BME280;3625;51.762;14.320;2024-01-06T02:58:25;99692.53;;;2.43;100.00
7168;BME280;3625;51.762;14.320;2024-01-06T03:00:54;99696.03;;;2.25;100.00
7168;BME280;3625;51.762;14.320;2024-01-06T03:03:23;99700.41;;;2.23;100.00
7168;BME280;3625;51.762;14.320;2024-01-06T03:05:51;99702.16;;;2.32;100.00
7168;BME280;3625;51.762;14.320;2024-01-06T03:08:20;99704.72;;;2.47;100.00
7168;BME280;3625;51.762;14.320;2024-01-06T03:10:50;99702.97;;;2.52;100.00
7168;BME280;3625;51.762;14.320;2024-01-06T03:13:18;99703.84;;;2.49;100.00
7168;BME280;3625;51.762;14.320;2024-01-06T03:15:49;99705.59;;;2.35;100.00
7168;BME280;3625;51.762;14.320;2024-01-06T03:18:17;99703.00;;;2.27;100.00
7168;BME280;3625;51.762;14.320;2024-01-06T03:20:46;99704.75;;;2.25;100.00
7168;BME280;3625;51.762;14.320;2024-01-06T03:23:15;99709.13;;;2.16;100.00
7168;BME280;3625;51.762;14.320;2024-01-06T03:25:44;99684.78;;;2.06;100.00
7168;BME280;3625;51.762;14.320;2024-01-06T03:28:12;99711.72;;;2.20;100.00
7168;BME280;3625;51.762;14.320;2024-01-06T03:30:41;99711.69;;;2.17;100.00
7168;BME280;3625;51.762;14.320;2024-01-06T03:33:11;99717.78;;;2.16;100.00
7168;BME280;3625;51.762;14.320;2024-01-06T03:35:40;99699.56;;;2.07;100.00
7168;BME280;3625;51.762;14.320;2024-01-06T03:38:09;99726.50;;;2.11;100.00
7168;BME280;3625;51.762;14.320;2024-01-06T03:40:38;99724.78;;;2.07;100.00
7168;BME280;3625;51.762;14.320;2024-01-06T03:43:06;99721.28;;;1.97;100.00
7168;BME280;3625;51.762;14.320;2024-01-06T03:45:35;99679.53;;;1.76;100.00
7168;BME280;3625;51.762;14.320;2024-01-06T03:48:04;99727.34;;;2.08;100.00
7168;BME280;3625;51.762;14.320;2024-01-06T03:50:35;99723.88;;;2.18;100.00
7168;BME280;3625;51.762;14.320;2024-01-06T03:53:04;99663.03;;;1.78;100.00
7168;BME280;3625;51.762;14.320;2024-01-06T03:55:33;99731.72;;;2.15;100.00
7168;BME280;3625;51.762;14.320;2024-01-06T03:58:02;99729.97;;;2.22;100.00
7168;BME280;3625;51.762;14.320;2024-01-06T04:00:31;99725.63;;;2.01;100.00
7168;BME280;3625;51.762;14.320;2024-01-06T04:02:59;99716.94;;;1.93;100.00
7168;BME280;3625;51.762;14.320;2024-01-06T04:05:28;99729.97;;;1.92;100.00
7168;BME280;3625;51.762;14.320;2024-01-06T04:07:58;99724.78;;;1.90;100.00
7168;BME280;3625;51.762;14.320;2024-01-06T04:10:27;99724.75;;;1.92;100.00
7168;BME280;3625;51.762;14.320;2024-01-06T04:12:56;99735.19;;;1.99;100.00
7168;BME280;3625;51.762;14.320;2024-01-06T04:15:24;99694.34;;;1.81;100.00
7168;BME280;3625;51.762;14.320;2024-01-06T04:17:54;99725.66;;;1.98;100.00
7168;BME280;3625;51.762;14.320;2024-01-06T04:20:23;99720.41;;;2.00;100.00
7168;BME280;3625;51.762;14.320;2024-01-06T04:22:52;99732.59;;;1.90;100.00
7168;BME280;3625;51.762;14.320;2024-01-06T04:25:25;99705.63;;;1.64;100.00
7168;BME280;3625;51.762;14.320;2024-01-06T04:27:54;99674.31;;;1.38;100.00
7168;BME280;3625;51.762;14.320;2024-01-06T04:30:22;99732.56;;;1.75;100.00
7168;BME280;3625;51.762;14.320;2024-01-06T04:32:52;99738.66;;;1.80;100.00
7168;BME280;3625;51.762;14.320;2024-01-06T04:35:21;99737.78;;;1.87;100.00
7168;BME280;3625;51.762;14.320;2024-01-06T04:37:50;99732.56;;;1.87;100.00
7168;BME280;3625;51.762;14.320;2024-01-06T04:40:19;99734.31;;;1.79;100.00
7168;BME280;3625;51.762;14.320;2024-01-06T04:42:49;99739.50;;;1.74;100.00
7168;BME280;3625;51.762;14.320;2024-01-06T04:45:18;99742.16;;;1.89;100.00
7168;BME280;3625;51.762;14.320;2024-01-06T04:47:47;99739.53;;;2.02;100.00
7168;BME280;3625;51.762;14.320;2024-01-06T04:50:16;99740.41;;;2.10;100.00
7168;BME280;3625;51.762;14.320;2024-01-06T04:52:44;99747.38;;;2.06;100.00
7168;BME280;3625;51.762;14.320;2024-01-06T04:55:13;99745.59;;;1.92;100.00
7168;BME280;3625;51.762;14.320;2024-01-06T04:57:41;99710.81;;;1.74;100.00
7168;BME280;3625;51.762;14.320;2024-01-06T05:00:13;99752.59;;;1.96;100.00
7168;BME280;3625;51.762;14.320;2024-01-06T05:02:42;99756.91;;;1.92;100.00
7168;BME280;3625;51.762;14.320;2024-01-06T05:05:11;99769.97;;;1.94;100.00
7168;BME280;3625;51.762;14.320;2024-01-06T05:07:40;99773.47;;;1.99;100.00
7168;BME280;3625;51.762;14.320;2024-01-06T05:10:09;99772.59;;;1.97;100.00
7168;BME280;3625;51.762;14.320;2024-01-06T05:12:37;99754.28;;;1.75;100.00
7168;BME280;3625;51.762;14.320;2024-01-06T05:15:07;99772.53;;;1.83;100.00
7168;BME280;3625;51.762;14.320;2024-01-06T05:17:37;99777.78;;;1.89;100.00
7168;BME280;3625;51.762;14.320;2024-01-06T05:20:07;99768.22;;;1.91;100.00
7168;BME280;3625;51.762;14.320;2024-01-06T05:22:36;99781.25;;;1.91;100.00
7168;BME280;3625;51.762;14.320;2024-01-06T05:25:05;99783.00;;;1.81;100.00
7168;BME280;3625;51.762;14.320;2024-01-06T05:27:34;99777.75;;;1.75;100.00
7168;BME280;3625;51.762;14.320;2024-01-06T05:30:04;99776.88;;;1.75;100.00
7168;BME280;3625;51.762;14.320;2024-01-06T05:32:33;99790.81;;;1.78;100.00
7168;BME280;3625;51.762;14.320;2024-01-06T05:35:04;99794.25;;;1.70;100.00
7168;BME280;3625;51.762;14.320;2024-01-06T05:37:34;99804.66;;;1.68;100.00
7168;BME280;3625;51.762;14.320;2024-01-06T05:40:03;99809.88;;;1.61;100.00
7168;BME280;3625;51.762;14.320;2024-01-06T05:42:33;99810.72;;;1.60;100.00
7168;BME280;3625;51.762;14.320;2024-01-06T05:45:03;99815.94;;;1.58;100.00
7168;BME280;3625;51.762;14.320;2024-01-06T05:47:32;99809.84;;;1.55;100.00
7168;BME280;3625;51.762;14.320;2024-01-06T05:50:03;99802.88;;;1.52;100.00
7168;BME280;3625;51.762;14.320;2024-01-06T05:52:32;99822.88;;;1.58;100.00
7168;BME280;3625;51.762;14.320;2024-01-06T05:55:00;99830.66;;;1.48;100.00
7168;BME280;3625;51.762;14.320;2024-01-06T05:57:30;99833.31;;;1.55;100.00
7168;BME280;3625;51.762;14.320;2024-01-06T05:59:59;99835.91;;;1.56;100.00
7168;BME280;3625;51.762;14.320;2024-01-06T06:02:38;99837.66;;;1.52;100.00
7168;BME280;3625;51.762;14.320;2024-01-06T06:05:09;99855.00;;;1.50;100.00
7168;BME280;3625;51.762;14.320;2024-01-06T06:07:37;99853.25;;;1.49;100.00
7168;BME280;3625;51.762;14.320;2024-01-06T06:10:09;99852.41;;;1.54;100.00
7168;BME280;3625;51.762;14.320;2024-01-06T06:12:38;99819.31;;;1.34;100.00
7168;BME280;3625;51.762;14.320;2024-01-06T06:15:08;99859.41;;;1.64;100.00
7168;BME280;3625;51.762;14.320;2024-01-06T06:17:37;99875.03;;;1.61;100.00
7168;BME280;3625;51.762;14.320;2024-01-06T06:20:22;99871.53;;;1.59;100.00
7168;BME280;3625;51.762;14.320;2024-01-06T06:22:51;99873.25;;;1.52;100.00
7168;BME280;3625;51.762;14.320;2024-01-06T06:25:20;99882.78;;;1.48;100.00
7168;BME280;3625;51.762;14.320;2024-01-06T06:27:49;99885.44;;;1.53;100.00
7168;BME280;3625;51.762;14.320;2024-01-06T06:30:17;99889.78;;;1.52;100.00
7168;BME280;3625;51.762;14.320;2024-01-06T06:32:46;99893.22;;;1.45;100.00
7168;BME280;3625;51.762;14.320;2024-01-06T06:35:15;99860.81;;;1.04;100.00
7168;BME280;3625;51.762;14.320;2024-01-06T06:37:45;99897.47;;;1.28;100.00
7168;BME280;3625;51.762;14.320;2024-01-06T06:40:14;99907.06;;;1.37;100.00
7168;BME280;3625;51.762;14.320;2024-01-06T06:42:43;99909.69;;;1.41;100.00
7168;BME280;3625;51.762;14.320;2024-01-06T06:45:11;99825.97;;;0.87;100.00
7168;BME280;3625;51.762;14.320;2024-01-06T06:47:40;99919.19;;;1.32;100.00
7168;BME280;3625;51.762;14.320;2024-01-06T06:50:09;99921.78;;;1.29;100.00
7168;BME280;3625;51.762;14.320;2024-01-06T06:52:38;99929.59;;;1.29;100.00
7168;BME280;3625;51.762;14.320;2024-01-06T06:55:08;99924.47;;;1.44;100.00
7168;BME280;3625;51.762;14.320;2024-01-06T06:57:38;99931.31;;;1.31;100.00
7168;BME280;3625;51.762;14.320;2024-01-06T07:00:08;99945.19;;;1.24;100.00
7168;BME280;3625;51.762;14.320;2024-01-06T07:02:37;99941.72;;;1.27;100.00
7168;BME280;3625;51.762;14.320;2024-01-06T07:05:06;99941.69;;;1.22;100.00
7168;BME280;3625;51.762;14.320;2024-01-06T07:07:35;99947.78;;;1.20;100.00
7168;BME280;3625;51.762;14.320;2024-01-06T07:10:08;99945.19;;;1.24;100.00
7168;BME280;3625;51.762;14.320;2024-01-06T07:12:36;99946.81;;;1.13;100.00
7168;BME280;3625;51.762;14.320;2024-01-06T07:15:06;99965.19;;;1.31;100.00
7168;BME280;3625;51.762;14.320;2024-01-06T07:17:37;99925.06;;;1.05;100.00
7168;BME280;3625;51.762;14.320;2024-01-06T07:20:08;99972.19;;;1.35;100.00
7168;BME280;3625;51.762;14.320;2024-01-06T07:22:36;99982.75;;;1.54;100.00
7168;BME280;3625;51.762;14.320;2024-01-06T07:25:07;99988.81;;;1.57;100.00
7168;BME280;3625;51.762;14.320;2024-01-06T07:27:36;99990.59;;;1.61;100.00
7168;BME280;3625;51.762;14.320;2024-01-06T07:30:06;99994.06;;;1.59;100.00
7168;BME280;3625;51.762;14.320;2024-01-06T07:32:36;99992.34;;;1.62;100.00
7168;BME280;3625;51.762;14.320;2024-01-06T07:35:05;100000.94;;;1.46;100.00
7168;BME280;3625;51.762;14.320;2024-01-06T07:37:34;100003.59;;;1.54;100.00
7168;BME280;3625;51.762;14.320;2024-01-06T07:40:04;99905.88;;;0.95;100.00
7168;BME280;3625;51.762;14.320;2024-01-06T07:42:35;100010.53;;;1.53;100.00
7168;BME280;3625;51.762;14.320;2024-01-06T07:45:06;100007.88;;;1.48;100.00
7168;BME280;3625;51.762;14.320;2024-01-06T07:47:34;100017.47;;;1.52;100.00
7168;BME280;3625;51.762;14.320;2024-01-06T07:50:05;100017.50;;;1.57;100.00
7168;BME280;3625;51.762;14.320;2024-01-06T07:52:33;100021.00;;;1.59;100.00
7168;BME280;3625;51.762;14.320;2024-01-06T07:55:03;100015.81;;;1.62;100.00
7168;BME280;3625;51.762;14.320;2024-01-06T07:57:31;100020.97;;;1.58;100.00
7168;BME280;3625;51.762;14.320;2024-01-06T08:00:02;100026.25;;;1.64;100.00
7168;BME280;3625;51.762;14.320;2024-01-06T08:02:38;100033.19;;;1.63;100.00
7168;BME280;3625;51.762;14.320;2024-01-06T08:05:07;100034.00;;;1.55;100.00
7168;BME280;3625;51.762;14.320;2024-01-06T08:07:37;100034.81;;;1.44;100.00
7168;BME280;3625;51.762;14.320;2024-01-06T08:10:07;100043.59;;;1.56;100.00
7168;BME280;3625;51.762;14.320;2024-01-06T08:12:36;100037.56;;;1.64;100.00
7168;BME280;3625;51.762;14.320;2024-01-06T08:15:08;100043.59;;;1.59;100.00
7168;BME280;3625;51.762;14.320;2024-01-06T08:17:37;100043.59;;;1.59;100.00
7168;BME280;3625;51.762;14.320;2024-01-06T08:20:09;100031.47;;;1.67;100.00
7168;BME280;3625;51.762;14.320;2024-01-06T08:22:38;100047.22;;;1.80;100.00
7168;BME280;3625;51.762;14.320;2024-01-06T08:25:08;100046.34;;;1.80;100.00
7168;BME280;3625;51.762;14.320;2024-01-06T08:27:36;100048.09;;;1.84;100.00
7168;BME280;3625;51.762;14.320;2024-01-06T08:30:08;100055.88;;;1.78;100.00
7168;BME280;3625;51.762;14.320;2024-01-06T08:32:37;100057.63;;;1.82;100.00
7168;BME280;3625;51.762;14.320;2024-01-06T08:35:07;100068.00;;;1.68;100.00
7168;BME280;3625;51.762;14.320;2024-01-06T08:37:36;100072.31;;;1.63;100.00
7168;BME280;3625;51.762;14.320;2024-01-06T08:40:07;100077.47;;;1.59;100.00
7168;BME280;3625;51.762;14.320;2024-01-06T08:42:36;100076.72;;;1.72;100.00
7168;BME280;3625;51.762;14.320;2024-01-06T08:45:06;100066.22;;;1.61;100.00
7168;BME280;3625;51.762;14.320;2024-01-06T08:47:35;100068.91;;;1.72;100.00
7168;BME280;3625;51.762;14.320;2024-01-06T08:50:06;100075.06;;;1.81;100.00
7168;BME280;3625;51.762;14.320;2024-01-06T08:52:35;100076.84;;;1.93;100.00
7168;BME280;3625;51.762;14.320;2024-01-06T08:55:05;100072.41;;;1.77;100.00
7168;BME280;3625;51.762;14.320;2024-01-06T08:57:33;100087.25;;;1.87;100.00
7168;BME280;3625;51.762;14.320;2024-01-06T09:00:03;100083.91;;;2.11;100.00
7168;BME280;3625;51.762;14.320;2024-01-06T09:02:34;100091.72;;;2.09;100.00
7168;BME280;3625;51.762;14.320;2024-01-06T09:05:03;100096.13;;;2.18;100.00
7168;BME280;3625;51.762;14.320;2024-01-06T09:07:32;100096.88;;;2.00;100.00
7168;BME280;3625;51.762;14.320;2024-01-06T09:10:00;100092.56;;;2.04;100.00
7168;BME280;3625;51.762;14.320;2024-01-06T09:12:30;100048.97;;;1.83;100.00
7168;BME280;3625;51.762;14.320;2024-01-06T09:14:59;100087.44;;;2.19;100.00
7168;BME280;3625;51.762;14.320;2024-01-06T09:17:28;100091.75;;;2.12;100.00
7168;BME280;3625;51.762;14.320;2024-01-06T09:19:58;100099.56;;;2.09;100.00
7168;BME280;3625;51.762;14.320;2024-01-06T09:22:26;100100.41;;;2.05;100.00
7168;BME280;3625;51.762;14.320;2024-01-06T09:24:55;100108.31;;;2.20;100.00
7168;BME280;3625;51.762;14.320;2024-01-06T09:27:24;100117.94;;;2.27;100.00
7168;BME280;3625;51.762;14.320;2024-01-06T09:29:53;100119.69;;;2.35;100.00
7168;BME280;3625;51.762;14.320;2024-01-06T09:32:21;100117.81;;;2.11;100.00
7168;BME280;3625;51.762;14.320;2024-01-06T09:34:51;100126.63;;;2.23;100.00
7168;BME280;3625;51.762;14.320;2024-01-06T09:37:21;100123.16;;;2.29;100.00
7168;BME280;3625;51.762;14.320;2024-01-06T09:39:50;100126.72;;;2.46;100.00
7168;BME280;3625;51.762;14.320;2024-01-06T09:42:19;100077.91;;;2.25;100.00
7168;BME280;3625;51.762;14.320;2024-01-06T09:44:48;100117.28;;;2.74;100.00
7168;BME280;3625;51.762;14.320;2024-01-06T09:47:18;100137.25;;;2.58;100.00
7168;BME280;3625;51.762;14.320;2024-01-06T09:49:49;100131.97;;;2.49;100.00
7168;BME280;3625;51.762;14.320;2024-01-06T09:52:22;100126.69;;;2.37;100.00
7168;BME280;3625;51.762;14.320;2024-01-06T09:54:53;100134.56;;;2.48;100.00
7168;BME280;3625;51.762;14.320;2024-01-06T09:57:24;100084.09;;;2.46;100.00
7168;BME280;3625;51.762;14.320;2024-01-06T09:59:53;100120.72;;;2.58;100.00
7168;BME280;3625;51.762;14.320;2024-01-06T10:02:23;100091.84;;;2.24;100.00
7168;BME280;3625;51.762;14.320;2024-01-06T10:04:53;100136.38;;;2.58;100.00
7168;BME280;3625;51.762;14.320;2024-01-06T10:07:23;100145.00;;;2.45;100.00
7168;BME280;3625;51.762;14.320;2024-01-06T10:09:54;100143.38;;;2.65;100.00
7168;BME280;3625;51.762;14.320;2024-01-06T10:12:24;100141.66;;;2.73;100.00
7168;BME280;3625;51.762;14.320;2024-01-06T10:14:56;100143.44;;;2.83;100.00
7168;BME280;3625;51.762;14.320;2024-01-06T10:17:24;100128.53;;;2.56;100.00
7168;BME280;3625;51.762;14.320;2024-01-06T10:19:54;100150.22;;;2.46;100.00
7168;BME280;3625;51.762;14.320;2024-01-06T10:22:25;100116.09;;;2.11;100.00
7168;BME280;3625;51.762;14.320;2024-01-06T10:24:55;100146.69;;;2.37;100.00
7168;BME280;3625;51.762;14.320;2024-01-06T10:27:25;100151.16;;;2.62;100.00
7168;BME280;3625;51.762;14.320;2024-01-06T10:29:54;100150.25;;;2.48;100.00
7168;BME280;3625;51.762;14.320;2024-01-06T10:32:23;100089.94;;;1.98;100.00
7168;BME280;3625;51.762;14.320;2024-01-06T10:34:56;100135.38;;;2.36;100.00
7168;BME280;3625;51.762;14.320;2024-01-06T10:37:26;100145.03;;;2.54;100.00
7168;BME280;3625;51.762;14.320;2024-01-06T10:40:11;100134.66;;;2.69;100.00
7168;BME280;3625;51.762;14.320;2024-01-06T10:42:41;100143.41;;;2.77;100.00
7168;BME280;3625;51.762;14.320;2024-01-06T10:45:12;100142.59;;;2.90;100.00
7168;BME280;3625;51.762;14.320;2024-01-06T10:47:42;100122.56;;;2.88;100.00
7168;BME280;3625;51.762;14.320;2024-01-06T10:50:12;100149.50;;;2.73;100.00
7168;BME280;3625;51.762;14.320;2024-01-06T10:52:44;100152.91;;;2.60;100.00
7168;BME280;3625;51.762;14.320;2024-01-06T10:55:15;100150.19;;;2.43;100.00
7168;BME280;3625;51.762;14.320;2024-01-06T10:57:45;100110.91;;;2.19;100.00
7168;BME280;3625;51.762;14.320;2024-01-06T11:00:15;100128.44;;;2.38;100.00
7168;BME280;3625;51.762;14.320;2024-01-06T11:02:46;100142.44;;;2.55;100.00
7168;BME280;3625;51.762;14.320;2024-01-06T11:05:16;100129.28;;;2.33;100.00
7168;BME280;3625;51.762;14.320;2024-01-06T11:07:47;100150.34;;;2.68;100.00
7168;BME280;3625;51.762;14.320;2024-01-06T11:10:19;100107.56;;;2.44;100.00
7168;BME280;3625;51.762;14.320;2024-01-06T11:13:08;100163.34;;;2.55;100.00
7168;BME280;3625;51.762;14.320;2024-01-06T11:15:47;100156.38;;;2.54;100.00
7168;BME280;3625;51.762;14.320;2024-01-06T11:18:38;100162.50;;;2.64;100.00
7168;BME280;3625;51.762;14.320;2024-01-06T11:21:20;100164.28;;;2.68;100.00
7168;BME280;3625;51.762;14.320;2024-01-06T11:24:19;100161.56;;;2.50;100.00
7168;BME280;3625;51.762;14.320;2024-01-06T11:26:53;100165.09;;;2.56;100.00
7168;BME280;3625;51.762;14.320;2024-01-06T11:29:24;100167.66;;;2.49;100.00
7168;BME280;3625;51.762;14.320;2024-01-06T11:32:27;100150.97;;;2.25;100.00
7168;BME280;3625;51.762;14.320;2024-01-06T11:35:06;100158.03;;;2.39;100.00
7168;BME280;3625;51.762;14.320;2024-01-06T11:37:51;100164.13;;;2.41;100.00
7168;BME280;3625;51.762;14.320;2024-01-06T11:40:31;100155.44;;;2.45;100.00
7168;BME280;3625;51.762;14.320;2024-01-06T11:43:04;100166.69;;;2.32;100.00
7168;BME280;3625;51.762;14.320;2024-01-06T11:45:35;100164.94;;;2.31;100.00
7168;BME280;3625;51.762;14.320;2024-01-06T11:48:06;100164.91;;;2.29;100.00
7168;BME280;3625;51.762;14.320;2024-01-06T11:50:37;100164.00;;;2.22;100.00
7168;BME280;3625;51.762;14.320;2024-01-06T11:53:08;100137.00;;;2.16;100.00
7168;BME280;3625;51.762;14.320;2024-01-06T11:55:40;100118.75;;;2.20;100.00
7168;BME280;3625;51.762;14.320;2024-01-06T11:58:10;100161.59;;;2.57;100.00
7168;BME280;3625;51.762;14.320;2024-01-06T12:00:38;100159.88;;;2.59;100.00
7168;BME280;3625;51.762;14.320;2024-01-06T12:03:09;100157.13;;;2.37;100.00
7168;BME280;3625;51.762;14.320;2024-01-06T12:05:38;100163.16;;;2.23;100.00
7168;BME280;3625;51.762;14.320;2024-01-06T12:08:07;100163.22;;;2.36;100.00
7168;BME280;3625;51.762;14.320;2024-01-06T12:10:35;100136.94;;;2.05;100.00
7168;BME280;3625;51.762;14.320;2024-01-06T12:13:07;100169.06;;;2.01;100.00
7168;BME280;3625;51.762;14.320;2024-01-06T12:15:37;100163.97;;;2.15;100.00
7168;BME280;3625;51.762;14.320;2024-01-06T12:18:08;100176.94;;;2.09;100.00
7168;BME280;3625;51.762;14.320;2024-01-06T12:20:39;100155.09;;;1.93;100.00
7168;BME280;3625;51.762;14.320;2024-01-06T12:23:10;100189.13;;;2.08;100.00
7168;BME280;3625;51.762;14.320;2024-01-06T12:25:38;100182.16;;;2.06;100.00
7168;BME280;3625;51.762;14.320;2024-01-06T12:28:09;100195.16;;;2.01;100.00
7168;BME280;3625;51.762;14.320;2024-01-06T12:30:39;100196.88;;;1.99;100.00
7168;BME280;3625;51.762;14.320;2024-01-06T12:33:09;100196.78;;;1.87;100.00
7168;BME280;3625;51.762;14.320;2024-01-06T12:35:39;100155.75;;;1.68;100.00
7168;BME280;3625;51.762;14.320;2024-01-06T12:38:09;100206.41;;;1.94;100.00
7168;BME280;3625;51.762;14.320;2024-01-06T12:40:38;100202.97;;;2.00;100.00
7168;BME280;3625;51.762;14.320;2024-01-06T12:43:09;100202.97;;;1.98;100.00
7168;BME280;3625;51.762;14.320;2024-01-06T12:45:38;100189.84;;;1.89;100.00
7168;BME280;3625;51.762;14.320;2024-01-06T12:48:07;100208.03;;;1.80;100.00
7168;BME280;3625;51.762;14.320;2024-01-06T12:50:36;100215.84;;;1.78;100.00
7168;BME280;3625;51.762;14.320;2024-01-06T12:53:05;100205.50;;;1.89;100.00
7168;BME280;3625;51.762;14.320;2024-01-06T12:55:34;100194.13;;;1.84;100.00
7168;BME280;3625;51.762;14.320;2024-01-06T12:58:04;100217.81;;;2.05;100.00
7168;BME280;3625;51.762;14.320;2024-01-06T13:00:35;100223.75;;;1.89;100.00
7168;BME280;3625;51.762;14.320;2024-01-06T13:03:05;100221.09;;;1.81;100.00
7168;BME280;3625;51.762;14.320;2024-01-06T13:05:34;100189.63;;;1.63;100.00
7168;BME280;3625;51.762;14.320;2024-01-06T13:08:03;100229.75;;;1.79;100.00
7168;BME280;3625;51.762;14.320;2024-01-06T13:10:32;100227.22;;;1.86;100.00
7168;BME280;3625;51.762;14.320;2024-01-06T13:13:01;100241.06;;;1.82;100.00
7168;BME280;3625;51.762;14.320;2024-01-06T13:15:30;100235.94;;;1.88;100.00
7168;BME280;3625;51.762;14.320;2024-01-06T13:18:01;100241.97;;;1.86;100.00
7168;BME280;3625;51.762;14.320;2024-01-06T13:20:32;100248.91;;;1.84;100.00
7168;BME280;3625;51.762;14.320;2024-01-06T13:23:00;100245.34;;;1.73;100.00